Time;durP1;ratioP1;P1;durP2;ratioP2;P2;SDS_P1;SDS_P2;PMS_P1;PMS_P2;Temp;Humidity;BMP_temperature;BMP_pressure;BME280_temperature;BME280_humidity;BME280_pressure;Samples;Min_cycle;Max_cycle;Signal;HPM_P1;HPM_P2
2022/01/20 00:01:47;;;;;;;22.65;2.25;;;4.00;99.90;;;;;;4996974;28;20163;-92
2022/01/20 00:04:19;;;;;;;25.33;2.10;;;4.00;99.90;;;;;;4996531;28;20192;-92
2022/01/20 00:26:55;;;;;;;12.18;1.80;;;3.40;99.90;;;;;;5013293;28;20061;-91
2022/01/20 00:29:27;;;;;;;23.40;1.85;;;3.30;99.90;;;;;;5013272;28;20149;-91
2022/01/20 00:32:11;;;;;;;12.07;1.35;;;3.20;99.90;;;;;;5013151;28;20065;-92
2022/01/20 00:35:10;;;;;;;16.85;1.70;;;3.50;99.90;;;;;;5013433;28;20061;-91
2022/01/20 00:37:36;;;;;;;16.45;1.67;;;3.30;99.90;;;;;;4996781;28;20468;-92
2022/01/20 00:40:03;;;;;;;23.55;1.83;;;3.20;99.90;;;;;;4996725;28;20085;-91
2022/01/20 00:42:29;;;;;;;21.70;1.92;;;3.20;99.90;;;;;;5013438;28;20058;-92
2022/01/20 00:44:55;;;;;;;16.17;1.40;;;3.60;99.90;;;;;;5016182;28;20049;-91
2022/01/20 00:47:21;;;;;;;16.00;1.67;;;3.20;99.90;;;;;;5017158;28;20084;-91
2022/01/20 00:49:48;;;;;;;16.60;1.88;;;3.30;99.90;;;;;;5000293;28;20168;-92
2022/01/20 00:59:35;;;;;;;13.87;1.80;;;3.10;99.90;;;;;;5033481;28;20298;-91
2022/01/20 01:02:08;;;;;;;15.60;2.03;;;3.20;99.90;;;;;;5000115;28;20061;-92
2022/01/20 01:04:35;;;;;;;16.00;1.27;;;3.10;99.90;;;;;;5016327;28;20076;-91
2022/01/20 01:09:26;;;;;;;18.38;1.70;;;3.10;99.90;;;;;;5016059;28;20053;-91
2022/01/20 01:11:57;;;;;;;12.32;1.35;;;3.10;99.90;;;;;;4999889;28;20054;-92
2022/01/20 01:14:24;;;;;;;10.70;1.38;;;3.20;99.90;;;;;;5016649;28;20128;-91
2022/01/20 01:22:23;;;;;;;14.60;1.45;;;3.50;99.90;;;;;;5020107;28;20060;-92
2022/01/20 01:24:55;;;;;;;14.88;1.38;;;3.50;99.90;;;;;;5019179;28;20064;-92
2022/01/20 01:27:24;;;;;;;16.70;2.00;;;3.70;99.90;;;;;;5019942;28;20053;-95
2022/01/20 01:32:38;;;;;;;11.95;1.27;;;3.70;99.90;;;;;;5019946;28;20049;-94
2022/01/20 01:35:07;;;;;;;21.98;1.73;;;3.70;99.90;;;;;;5003392;28;20056;-93
2022/01/20 01:40:28;;;;;;;9.13;2.03;;;3.70;99.90;;;;;;5019740;28;20107;-93
2022/01/20 01:42:55;;;;;;;9.93;1.00;;;3.60;99.90;;;;;;5003288;28;20415;-93
2022/01/20 01:45:35;;;;;;;13.93;1.17;;;3.50;99.90;;;;;;5019240;28;20483;-93
2022/01/20 01:48:03;;;;;;;10.25;1.00;;;3.60;99.90;;;;;;5002357;28;20088;-93
2022/01/20 01:50:29;;;;;;;10.18;1.25;;;3.80;99.90;;;;;;5003275;28;20119;-93
2022/01/20 01:52:57;;;;;;;9.35;0.98;;;3.30;99.90;;;;;;5019662;28;20088;-93
2022/01/20 01:55:24;;;;;;;8.25;0.70;;;3.40;99.90;;;;;;5002904;28;20166;-93
2022/01/20 01:57:50;;;;;;;4.40;0.80;;;3.40;99.90;;;;;;5002759;28;20045;-94
2022/01/20 02:00:17;;;;;;;6.22;0.90;;;3.60;99.90;;;;;;5018827;28;20112;-93
2022/01/20 02:02:44;;;;;;;9.57;1.00;;;3.30;99.90;;;;;;5018972;28;20057;-94
2022/01/20 02:05:14;;;;;;;7.88;1.08;;;3.60;99.90;;;;;;5018579;28;20052;-92
2022/01/20 02:21:11;;;;;;;8.93;0.73;;;3.50;99.90;;;;;;5017746;28;20079;-91
2022/01/20 02:23:36;;;;;;;11.68;1.40;;;3.50;99.90;;;;;;5001267;28;20065;-91
2022/01/20 02:26:03;;;;;;;10.77;0.90;;;3.80;99.90;;;;;;5016396;28;20049;-90
2022/01/20 02:28:29;;;;;;;10.88;1.33;;;3.40;99.90;;;;;;5001205;28;20085;-92
2022/01/20 02:30:55;;;;;;;13.40;1.35;;;3.30;99.90;;;;;;5017666;28;20045;-90
2022/01/20 02:33:22;;;;;;;6.43;1.02;;;3.40;99.90;;;;;;5000902;28;20053;-90
2022/01/20 02:35:52;;;;;;;12.35;1.20;;;3.40;99.90;;;;;;5001167;28;20057;-90
2022/01/20 02:38:41;;;;;;;8.82;0.88;;;3.40;99.90;;;;;;5001774;28;20064;-91
2022/01/20 02:46:38;;;;;;;14.18;1.13;;;3.40;99.90;;;;;;5017314;28;20099;-93
2022/01/20 02:49:05;;;;;;;17.70;1.48;;;3.50;99.90;;;;;;5033930;28;20538;-92
2022/01/20 02:52:08;;;;;;;9.85;1.20;;;3.50;99.90;;;;;;5000860;28;20065;-91
2022/01/20 02:54:34;;;;;;;12.90;1.35;;;3.60;99.90;;;;;;5017249;28;20140;-90
2022/01/20 02:57:01;;;;;;;16.85;1.30;;;3.60;99.90;;;;;;5017779;28;20136;-91
2022/01/20 02:59:27;;;;;;;11.18;1.45;;;3.60;99.90;;;;;;5000545;28;20407;-89
2022/01/20 03:01:53;;;;;;;13.82;1.13;;;3.70;99.90;;;;;;5017551;28;20406;-91
2022/01/20 03:04:23;;;;;;;12.73;1.42;;;3.70;99.90;;;;;;5001334;28;20057;-90
2022/01/20 03:07:32;;;;;;;14.87;0.93;;;3.70;99.90;;;;;;5001516;28;20069;-95
2022/01/20 03:09:58;;;;;;;10.07;1.40;;;3.60;99.90;;;;;;5016932;28;20057;-93
2022/01/20 03:12:23;;;;;;;7.45;0.70;;;3.90;99.90;;;;;;5001618;28;20065;-94
2022/01/20 03:14:49;;;;;;;11.57;1.25;;;3.60;99.90;;;;;;5001804;28;20057;-94
2022/01/20 03:17:16;;;;;;;16.77;1.67;;;3.50;99.90;;;;;;5001285;28;20507;-91
2022/01/20 03:19:41;;;;;;;12.95;0.95;;;3.40;99.90;;;;;;5000913;28;20072;-92
2022/01/20 03:22:07;;;;;;;8.82;1.00;;;3.60;99.90;;;;;;5000863;28;20064;-91
2022/01/20 03:24:33;;;;;;;13.95;1.48;;;3.30;99.90;;;;;;5000795;28;20054;-91
2022/01/20 03:26:58;;;;;;;10.23;0.95;;;3.30;99.90;;;;;;5001081;28;20045;-92
2022/01/20 03:29:24;;;;;;;14.05;1.30;;;3.20;99.90;;;;;;5000098;28;20053;-91
2022/01/20 03:31:50;;;;;;;17.85;1.45;;;3.30;99.90;;;;;;5001070;28;20089;-90
2022/01/20 03:34:15;;;;;;;17.00;1.55;;;3.30;99.90;;;;;;5017056;28;20562;-92
2022/01/20 03:36:41;;;;;;;12.45;1.48;;;3.20;99.90;;;;;;5016725;28;20061;-91
2022/01/20 03:39:07;;;;;;;13.68;1.70;;;3.20;99.90;;;;;;4999896;28;20049;-93
2022/01/20 03:41:32;;;;;;;17.63;1.77;;;3.40;99.90;;;;;;5000399;28;20054;-91
2022/01/20 03:43:58;;;;;;;17.33;1.90;;;3.10;99.90;;;;;;5016395;28;20084;-92
2022/01/20 03:46:24;;;;;;;17.38;1.98;;;3.20;99.90;;;;;;5016791;28;20084;-91
2022/01/20 03:48:52;;;;;;;18.10;1.85;;;3.10;99.90;;;;;;5016180;28;20045;-92
2022/01/20 03:51:21;;;;;;;21.08;2.10;;;3.10;99.90;;;;;;5016599;28;20057;-93
2022/01/20 03:53:53;;;;;;;16.08;2.50;;;3.10;99.90;;;;;;5016863;28;20140;-93
2022/01/20 03:56:20;;;;;;;21.98;2.22;;;3.10;99.90;;;;;;5000161;28;20511;-91
2022/01/20 03:58:46;;;;;;;29.45;2.22;;;3.10;99.90;;;;;;5016139;28;20057;-91
2022/01/20 04:01:14;;;;;;;21.23;2.08;;;3.00;99.90;;;;;;5016606;28;20431;-92
2022/01/20 04:03:40;;;;;;;20.23;2.28;;;2.90;99.90;;;;;;5000514;28;20053;-92
2022/01/20 04:06:06;;;;;;;33.35;3.35;;;2.60;99.90;;;;;;5016372;28;20534;-91
2022/01/20 04:08:35;;;;;;;18.67;2.42;;;2.70;99.90;;;;;;5000439;28;20049;-92
2022/01/20 04:11:03;;;;;;;26.85;3.05;;;3.00;99.90;;;;;;5000498;28;20447;-92
2022/01/20 04:13:31;;;;;;;22.48;2.60;;;2.80;99.90;;;;;;5000922;28;20053;-91
2022/01/20 04:16:01;;;;;;;27.55;3.15;;;2.80;99.90;;;;;;5017680;28;20053;-91
2022/01/20 04:18:31;;;;;;;27.93;2.83;;;2.90;99.90;;;;;;5000640;28;20085;-93
2022/01/20 04:20:57;;;;;;;28.52;3.10;;;2.80;99.90;;;;;;5000047;28;20292;-92
2022/01/20 04:23:23;;;;;;;26.33;3.78;;;2.80;99.90;;;;;;5000369;28;20060;-92
2022/01/20 04:25:48;;;;;;;21.10;3.20;;;2.80;99.90;;;;;;5016575;28;20076;-91
2022/01/20 04:28:14;;;;;;;20.08;3.22;;;2.80;99.90;;;;;;4999789;28;20041;-92
2022/01/20 04:30:40;;;;;;;29.30;3.03;;;2.80;99.90;;;;;;4999540;28;20053;-92
2022/01/20 04:33:05;;;;;;;28.50;3.13;;;2.90;99.90;;;;;;5016409;28;20058;-91
2022/01/20 04:35:31;;;;;;;22.70;3.35;;;2.70;99.90;;;;;;5016089;28;20506;-92
2022/01/20 04:38:37;;;;;;;24.02;2.80;;;2.80;99.90;;;;;;5016114;28;20046;-92
2022/01/20 04:41:06;;;;;;;23.17;2.35;;;2.70;99.90;;;;;;5015257;28;20491;-94
2022/01/20 04:43:33;;;;;;;17.75;2.45;;;2.70;99.90;;;;;;4999491;28;20089;-92
2022/01/20 04:46:10;;;;;;;25.15;3.03;;;2.80;99.90;;;;;;5016357;28;20064;-91
2022/01/20 04:59:39;;;;;;;20.55;2.72;;;2.60;99.90;;;;;;5019419;28;20107;-91
2022/01/20 05:02:04;;;;;;;19.65;2.20;;;2.60;99.90;;;;;;5003009;28;20089;-92
2022/01/20 05:04:34;;;;;;;26.10;2.80;;;2.80;99.90;;;;;;5002679;28;20045;-91
2022/01/20 05:07:00;;;;;;;16.45;1.90;;;2.60;99.90;;;;;;5019672;28;20049;-92
2022/01/20 05:09:27;;;;;;;16.48;1.92;;;2.70;99.90;;;;;;5003209;28;20131;-92
2022/01/20 05:12:02;;;;;;;22.90;2.88;;;2.60;99.90;;;;;;5019405;28;20045;-92
2022/01/20 05:14:28;;;;;;;20.42;3.38;;;2.40;99.90;;;;;;5019537;28;20108;-90
2022/01/20 05:16:55;;;;;;;20.02;2.70;;;2.40;99.90;;;;;;5003567;28;20474;-93
2022/01/20 05:19:29;;;;;;;19.55;2.08;;;2.40;99.90;;;;;;5019698;28;20060;-91
2022/01/20 05:21:56;;;;;;;17.60;1.80;;;2.40;99.90;;;;;;5019829;28;20061;-92
2022/01/20 05:24:22;;;;;;;14.82;2.00;;;2.50;99.90;;;;;;5020564;28;20148;-92
2022/01/20 05:26:50;;;;;;;18.15;2.00;;;2.80;99.90;;;;;;5019892;28;20472;-94
2022/01/20 05:29:17;;;;;;;22.98;2.42;;;2.60;99.90;;;;;;5003836;28;20045;-94
2022/01/20 05:31:45;;;;;;;19.98;2.00;;;2.70;99.90;;;;;;5002827;28;20057;-93
2022/01/20 05:34:11;;;;;;;18.02;2.15;;;2.60;99.90;;;;;;5019413;28;20137;-93
2022/01/20 05:36:37;;;;;;;16.52;1.92;;;2.50;99.90;;;;;;5002555;28;20140;-92
2022/01/20 05:39:04;;;;;;;18.80;2.08;;;2.50;99.90;;;;;;5002892;28;20122;-92
2022/01/20 05:41:31;;;;;;;16.67;2.15;;;2.40;99.90;;;;;;5019188;28;20057;-92
2022/01/20 05:43:57;;;;;;;17.58;1.65;;;2.30;99.90;;;;;;5019668;28;20053;-95
2022/01/20 05:46:26;;;;;;;12.73;2.00;;;2.30;99.90;;;;;;5019733;28;20046;-93
2022/01/20 05:48:56;;;;;;;21.98;2.40;;;2.60;99.90;;;;;;5003037;28;20060;-93
2022/01/20 05:51:22;;;;;;;13.43;1.98;;;2.20;99.90;;;;;;5019417;28;20057;-92
2022/01/20 05:53:48;;;;;;;14.13;1.65;;;2.00;99.90;;;;;;5018722;28;20049;-93
2022/01/20 05:56:14;;;;;;;12.70;1.60;;;1.70;99.90;;;;;;5002267;28;20572;-95
2022/01/20 05:58:40;;;;;;;18.70;2.25;;;1.80;99.90;;;;;;5002351;28;20093;-93
2022/01/20 06:01:07;;;;;;;10.52;1.40;;;1.80;99.90;;;;;;5001239;28;20111;-92
2022/01/20 06:03:36;;;;;;;16.20;1.95;;;1.80;99.90;;;;;;5001923;28;20565;-93
2022/01/20 06:06:05;;;;;;;13.00;2.05;;;1.70;99.90;;;;;;5008115;28;20067;-92
2022/01/20 06:08:32;;;;;;;14.55;1.90;;;1.50;99.90;;;;;;5038245;28;20064;-92
2022/01/20 06:10:58;;;;;;;12.57;1.77;;;1.40;99.90;;;;;;5054427;28;20061;-92
2022/01/20 06:13:23;;;;;;;16.17;2.38;;;1.40;99.90;;;;;;5054746;28;20060;-92
2022/01/20 06:15:49;;;;;;;17.95;1.88;;;1.30;99.90;;;;;;5054447;28;20056;-92
2022/01/20 06:18:15;;;;;;;10.55;1.48;;;1.30;99.90;;;;;;5037880;28;20052;-92
2022/01/20 06:20:41;;;;;;;15.48;1.90;;;1.40;99.90;;;;;;5054319;28;20052;-92
2022/01/20 06:23:08;;;;;;;15.73;1.77;;;1.60;99.90;;;;;;5054230;28;20056;-92
2022/01/20 06:25:34;;;;;;;15.45;1.80;;;1.80;99.90;;;;;;5037505;28;20552;-93
2022/01/20 06:28:01;;;;;;;12.38;1.70;;;1.50;99.90;;;;;;5037564;28;20049;-92
2022/01/20 06:30:27;;;;;;;16.60;1.65;;;1.70;99.90;;;;;;5054050;28;20498;-95
2022/01/20 06:32:53;;;;;;;20.80;2.03;;;1.50;99.90;;;;;;5037746;28;20487;-92
2022/01/20 06:35:20;;;;;;;17.85;2.40;;;1.50;99.90;;;;;;5054421;28;20056;-92
2022/01/20 06:37:46;;;;;;;10.02;1.70;;;1.40;99.90;;;;;;5037328;28;20049;-93
2022/01/20 06:40:12;;;;;;;14.20;1.88;;;1.40;99.90;;;;;;5054404;28;20486;-93
2022/01/20 06:42:38;;;;;;;18.17;1.92;;;1.30;99.90;;;;;;5054024;28;20049;-92
2022/01/20 06:45:06;;;;;;;13.95;1.92;;;1.40;99.90;;;;;;5037951;28;20096;-92
2022/01/20 06:47:32;;;;;;;14.43;1.95;;;1.50;99.90;;;;;;5054882;28;20052;-92
2022/01/20 06:49:58;;;;;;;12.27;1.92;;;1.80;99.90;;;;;;5038567;28;20052;-93
2022/01/20 06:52:24;;;;;;;21.73;2.35;;;1.70;99.90;;;;;;5037788;28;20045;-94
2022/01/20 06:54:50;;;;;;;17.02;1.98;;;1.80;99.90;;;;;;5038211;28;20114;-93
2022/01/20 06:57:16;;;;;;;18.02;1.90;;;1.90;99.90;;;;;;5054697;28;20143;-93
2022/01/20 06:59:41;;;;;;;14.27;1.88;;;1.80;99.90;;;;;;5037444;28;20099;-93
2022/01/20 07:02:08;;;;;;;15.35;1.80;;;1.80;99.90;;;;;;5054576;28;20500;-93
2022/01/20 07:04:33;;;;;;;16.10;2.30;;;1.70;99.90;;;;;;5037927;28;20106;-92
2022/01/20 07:07:38;;;;;;;16.10;1.92;;;1.60;99.90;;;;;;5037523;28;20048;-92
2022/01/20 07:10:08;;;;;;;18.30;1.98;;;1.60;99.90;;;;;;5053334;28;20045;-92
2022/01/20 07:12:33;;;;;;;15.98;2.10;;;1.60;99.90;;;;;;5036775;28;20053;-94
2022/01/20 07:14:59;;;;;;;17.95;2.20;;;1.60;99.90;;;;;;5036507;28;20056;-92
2022/01/20 07:17:25;;;;;;;17.52;2.08;;;1.50;99.90;;;;;;5037274;28;20052;-92
2022/01/20 07:19:51;;;;;;;16.63;1.98;;;1.50;99.90;;;;;;5053253;28;20099;-92
2022/01/20 07:22:16;;;;;;;17.55;2.67;;;1.40;99.90;;;;;;5037642;28;20132;-93
2022/01/20 07:24:42;;;;;;;20.42;2.15;;;1.50;99.90;;;;;;5037220;28;20057;-93
2022/01/20 07:27:08;;;;;;;16.52;1.95;;;1.70;99.90;;;;;;5053202;28;20102;-93
2022/01/20 07:29:34;;;;;;;22.73;2.55;;;1.90;99.90;;;;;;5054074;28;20049;-92
2022/01/20 07:32:02;;;;;;;14.45;2.03;;;1.40;99.90;;;;;;5037412;28;20557;-93
2022/01/20 07:34:29;;;;;;;17.08;2.10;;;1.50;99.90;;;;;;5036972;28;20138;-94
2022/01/20 07:36:55;;;;;;;18.48;2.08;;;1.20;99.90;;;;;;5036895;28;20060;-94
2022/01/20 07:39:21;;;;;;;16.80;1.73;;;1.40;99.90;;;;;;5037046;28;20053;-93
2022/01/20 07:41:47;;;;;;;11.15;1.80;;;1.20;99.90;;;;;;5037323;28;20115;-94
2022/01/20 07:44:17;;;;;;;15.20;1.98;;;1.20;99.90;;;;;;5036012;28;20453;-94
2022/01/20 07:46:46;;;;;;;18.20;2.05;;;1.30;99.90;;;;;;5036807;28;20135;-93
2022/01/20 07:49:12;;;;;;;17.33;2.17;;;1.30;99.90;;;;;;5036827;28;20071;-93
2022/01/20 07:51:54;;;;;;;15.32;1.67;;;1.60;99.90;;;;;;5036623;28;20140;-93
2022/01/20 07:54:21;;;;;;;18.77;1.95;;;1.50;99.90;;;;;;5041158;28;20520;-94
2022/01/20 07:56:49;;;;;;;15.30;2.65;;;1.30;99.90;;;;;;5036919;28;20052;-92
2022/01/20 07:59:15;;;;;;;15.18;1.75;;;1.40;99.90;;;;;;5036967;28;20410;-93
2022/01/20 08:01:41;;;;;;;12.85;1.88;;;1.60;99.90;;;;;;5036657;28;20518;-91
2022/01/20 08:04:06;;;;;;;15.63;1.92;;;2.00;99.90;;;;;;5053886;28;20059;-93
2022/01/20 08:06:33;;;;;;;15.82;1.98;;;1.70;99.90;;;;;;5053067;28;20052;-93
2022/01/20 08:08:59;;;;;;;13.48;2.10;;;1.60;99.90;;;;;;5036272;28;20060;-93
2022/01/20 08:11:25;;;;;;;20.85;2.33;;;1.60;99.90;;;;;;5036011;28;20056;-92
2022/01/20 08:13:50;;;;;;;20.25;2.72;;;1.50;99.90;;;;;;5036481;28;20059;-93
2022/01/20 08:16:16;;;;;;;31.00;2.95;;;1.70;99.90;;;;;;5035919;28;20052;-94
2022/01/20 08:18:42;;;;;;;25.17;2.13;;;1.60;99.90;;;;;;5036027;28;20060;-93
2022/01/20 08:21:08;;;;;;;22.60;2.30;;;1.60;99.90;;;;;;5035924;28;20056;-93
2022/01/20 08:23:52;;;;;;;14.73;1.90;;;1.70;99.90;;;;;;5036124;28;20053;-93
2022/01/20 08:26:18;;;;;;;13.93;2.50;;;1.60;99.90;;;;;;5037376;28;20060;-93
2022/01/20 08:28:44;;;;;;;9.90;1.90;;;1.40;99.90;;;;;;5035989;28;20053;-94
2022/01/20 08:31:10;;;;;;;18.40;2.20;;;1.50;99.90;;;;;;5035896;28;20049;-93
2022/01/20 08:33:35;;;;;;;19.67;2.03;;;1.50;99.90;;;;;;5035463;28;20053;-93
2022/01/20 08:36:01;;;;;;;18.60;2.65;;;1.40;99.90;;;;;;5036419;28;20406;-93
2022/01/20 08:38:27;;;;;;;21.27;2.47;;;1.50;99.90;;;;;;5036416;28;20061;-93
2022/01/20 08:40:53;;;;;;;14.55;1.75;;;1.40;99.90;;;;;;5035878;28;20057;-94
2022/01/20 08:43:18;;;;;;;23.15;2.08;;;1.50;99.90;;;;;;5036126;28;20537;-94
2022/01/20 08:45:46;;;;;;;23.15;2.47;;;1.80;99.90;;;;;;5035957;28;20060;-93
2022/01/20 08:48:13;;;;;;;18.02;2.45;;;1.60;99.90;;;;;;5035548;28;20049;-94
2022/01/20 08:50:40;;;;;;;18.65;1.98;;;1.70;99.90;;;;;;5036393;28;20528;-94
2022/01/20 08:53:09;;;;;;;16.17;2.53;;;1.80;99.90;;;;;;5036329;28;20146;-93
2022/01/20 08:55:36;;;;;;;13.13;1.58;;;2.10;99.90;;;;;;5035974;28;20057;-93
2022/01/20 08:58:02;;;;;;;15.77;2.00;;;1.90;99.90;;;;;;5036659;28;20049;-94
2022/01/20 09:00:31;;;;;;;17.63;2.55;;;2.30;99.90;;;;;;5036747;28;20106;-94
2022/01/20 09:02:57;;;;;;;17.35;2.08;;;2.00;99.90;;;;;;5036637;28;20049;-94
2022/01/20 09:05:23;;;;;;;13.90;2.63;;;2.10;99.90;;;;;;5036041;28;20053;-94
2022/01/20 09:07:49;;;;;;;21.70;2.30;;;2.40;99.90;;;;;;5035736;28;20052;-94
2022/01/20 09:10:20;;;;;;;20.70;2.35;;;2.40;99.90;;;;;;5036432;28;20482;-94
2022/01/20 09:15:29;;;;;;;15.65;2.22;;;2.80;99.90;;;;;;5052469;28;20513;-93
2022/01/20 09:18:04;;;;;;;16.75;1.85;;;2.90;99.90;;;;;;5052401;28;20049;-93
2022/01/20 09:20:34;;;;;;;19.08;2.28;;;2.90;99.90;;;;;;5036124;28;20057;-93
2022/01/20 09:23:01;;;;;;;20.30;2.85;;;2.90;99.90;;;;;;5052016;28;20498;-92
2022/01/20 09:25:27;;;;;;;21.98;2.85;;;2.90;99.90;;;;;;5035689;28;20053;-93
2022/01/20 09:27:55;;;;;;;18.73;2.58;;;2.90;99.90;;;;;;5035345;28;20132;-91
2022/01/20 09:30:23;;;;;;;14.93;2.03;;;2.90;99.90;;;;;;5035932;28;20139;-92
2022/01/20 09:33:12;;;;;;;19.00;2.92;;;2.80;99.90;;;;;;5035559;28;20092;-92
2022/01/20 09:35:39;;;;;;;21.50;3.08;;;3.00;99.90;;;;;;5052979;28;20444;-93
2022/01/20 09:38:06;;;;;;;25.70;2.90;;;3.10;99.90;;;;;;5038786;28;20087;-92
2022/01/20 09:40:33;;;;;;;19.00;2.42;;;3.00;99.90;;;;;;5038950;28;20470;-93
2022/01/20 09:43:00;;;;;;;19.85;2.05;;;3.40;99.90;;;;;;5038257;28;20191;-94
2022/01/20 09:45:26;;;;;;;17.48;2.30;;;4.10;99.90;;;;;;5055132;28;20057;-93
2022/01/20 09:47:52;;;;;;;20.20;2.20;;;4.20;99.90;;;;;;5038557;28;20096;-94
2022/01/20 09:50:20;;;;;;;19.52;2.75;;;4.80;99.90;;;;;;5038445;28;20498;-93
2022/01/20 09:52:56;;;;;;;18.38;2.60;;;4.70;99.90;;;;;;5038339;28;20056;-93
2022/01/20 09:55:23;;;;;;;15.05;2.00;;;4.70;99.90;;;;;;5038579;28;20060;-92
2022/01/20 09:57:48;;;;;;;14.55;2.55;;;5.40;99.90;;;;;;5038500;28;20136;-94
2022/01/20 10:00:16;;;;;;;18.55;2.50;;;6.30;99.90;;;;;;5039088;28;20497;-95
2022/01/20 10:03:08;;;;;;;11.60;1.85;;;6.30;99.90;;;;;;5039475;28;20089;-93
2022/01/20 10:05:41;;;;;;;17.08;2.47;;;6.40;99.90;;;;;;5039952;28;20146;-95
2022/01/20 10:08:10;;;;;;;22.25;3.28;;;6.50;99.90;;;;;;5039250;28;20088;-93
2022/01/20 10:10:45;;;;;;;18.95;3.05;;;5.70;99.90;;;;;;5040730;28;20060;-94
2022/01/20 10:13:11;;;;;;;17.90;2.58;;;5.50;99.90;;;;;;5058742;28;20119;-93
2022/01/20 10:15:38;;;;;;;13.50;1.98;;;5.90;99.90;;;;;;5038274;28;20041;-92
2022/01/20 10:18:14;;;;;;;11.85;3.03;;;6.00;99.90;;;;;;5039073;28;20067;-94
2022/01/20 10:20:52;;;;;;;14.10;2.10;;;6.40;99.90;;;;;;5055215;28;20041;-93
2022/01/20 10:23:43;;;;;;;14.95;2.67;;;6.90;99.90;;;;;;5038770;28;20053;-94
2022/01/20 10:26:24;;;;;;;16.27;1.85;;;7.60;99.90;;;;;;5038976;28;20049;-94
2022/01/20 10:28:52;;;;;;;17.52;2.33;;;8.10;99.90;;;;;;5038721;28;20440;-93
2022/01/20 10:31:30;;;;;;;11.90;2.00;;;8.40;99.90;;;;;;5055174;28;20057;-93
2022/01/20 10:33:58;;;;;;;9.25;2.05;;;8.60;99.90;;;;;;5038640;28;20048;-94
2022/01/20 10:36:24;;;;;;;15.80;2.42;;;9.10;99.90;;;;;;5054963;28;20056;-95
2022/01/20 10:38:55;;;;;;;12.15;2.35;;;9.40;99.90;;;;;;5038052;28;20049;-95
2022/01/20 10:41:56;;;;;;;12.10;2.22;;;8.60;99.90;;;;;;5055041;28;20088;-95
2022/01/20 10:44:21;;;;;;;7.65;1.67;;;8.60;99.90;;;;;;5054644;28;20055;-94
2022/01/20 10:46:55;;;;;;;10.18;2.03;;;8.70;99.90;;;;;;5038653;28;20045;-94
2022/01/20 10:49:30;;;;;;;9.95;1.67;;;9.30;99.90;;;;;;5038523;28;20060;-93
2022/01/20 10:52:44;;;;;;;12.25;2.05;;;9.90;99.90;;;;;;5055257;28;20517;-94
2022/01/20 10:55:24;;;;;;;13.45;2.00;;;9.30;99.90;;;;;;5054735;28;20067;-95
2022/01/20 10:57:52;;;;;;;9.65;1.90;;;8.20;99.90;;;;;;5038344;28;20445;-92
2022/01/20 11:00:20;;;;;;;10.70;1.58;;;6.90;99.90;;;;;;5038993;28;20052;-93
2022/01/20 11:02:57;;;;;;;10.15;1.63;;;6.30;99.90;;;;;;5041851;28;20091;-92
2022/01/20 11:05:24;;;;;;;10.40;1.65;;;5.20;99.90;;;;;;5039306;28;20445;-93
2022/01/20 11:07:53;;;;;;;9.60;1.27;;;4.60;99.90;;;;;;5038029;28;20049;-94
2022/01/20 11:10:19;;;;;;;9.02;1.23;;;4.40;99.90;;;;;;5037538;28;20049;-93
2022/01/20 11:12:46;;;;;;;9.98;1.40;;;4.60;99.90;;;;;;5037427;28;20055;-94
2022/01/20 11:15:15;;;;;;;4.65;1.10;;;5.10;99.90;;;;;;5036746;28;20056;-93
2022/01/20 11:17:55;;;;;;;10.23;1.52;;;5.40;99.90;;;;;;5037820;28;20053;-95
2022/01/20 11:20:29;;;;;;;11.82;1.70;;;5.40;99.90;;;;;;5038220;28;20122;-95
2022/01/20 11:23:00;;;;;;;12.20;1.45;;;5.20;99.90;;;;;;5054521;28;20055;-91
2022/01/20 11:25:29;;;;;;;8.02;1.88;;;5.90;99.90;;;;;;5037552;28;20526;-93
2022/01/20 11:28:22;;;;;;;15.80;1.80;;;6.80;99.90;;;;;;5054771;28;20049;-94
2022/01/20 11:31:08;;;;;;;12.68;2.03;;;6.70;99.90;;;;;;5055518;28;20445;-95
2022/01/20 11:33:43;;;;;;;14.23;2.60;;;6.20;99.90;;;;;;5054446;28;20053;-94
2022/01/20 11:36:22;;;;;;;9.80;2.03;;;5.70;99.90;;;;;;5037717;28;20080;-95
2022/01/20 11:38:50;;;;;;;11.02;1.67;;;4.90;99.90;;;;;;5054756;28;20140;-93
2022/01/20 11:41:17;;;;;;;16.65;1.73;;;4.40;99.90;;;;;;5037880;28;20072;-94
2022/01/20 11:43:49;;;;;;;5.47;1.40;;;3.80;99.90;;;;;;5036904;28;20078;-92
2022/01/20 11:46:21;;;;;;;9.65;1.92;;;4.00;99.90;;;;;;5036762;28;20076;-95
2022/01/20 11:49:08;;;;;;;5.32;0.95;;;4.40;99.90;;;;;;5037821;28;20068;-94
2022/01/20 11:51:56;;;;;;;13.80;1.73;;;5.40;99.90;;;;;;5037748;28;20057;-93
2022/01/20 11:54:26;;;;;;;10.05;1.45;;;6.00;99.90;;;;;;5037214;28;20437;-94
2022/01/20 11:57:16;;;;;;;9.07;1.85;;;6.10;99.90;;;;;;5054898;28;20065;-93
2022/01/20 11:59:55;;;;;;;11.17;1.73;;;6.20;99.90;;;;;;5036534;28;20375;-95
2022/01/20 12:02:32;;;;;;;12.88;1.80;;;6.30;99.90;;;;;;5028510;28;20291;-94
2022/01/20 12:04:59;;;;;;;17.38;2.78;;;6.50;99.90;;;;;;5021533;28;20057;-92
2022/01/20 12:07:30;;;;;;;13.32;2.13;;;6.80;99.90;;;;;;5038050;28;20053;-96
2022/01/20 12:10:21;;;;;;;10.00;1.70;;;6.10;99.90;;;;;;5037727;28;20512;-93
2022/01/20 12:12:46;;;;;;;9.80;2.97;;;6.00;99.90;;;;;;5037707;28;20060;-92
2022/01/20 12:15:20;;;;;;;16.85;2.13;;;6.60;99.90;;;;;;5020403;28;20410;-93
2022/01/20 12:17:54;;;;;;;10.13;1.65;;;6.60;99.90;;;;;;5037355;28;20110;-93
2022/01/20 12:20:24;;;;;;;10.02;1.75;;;6.60;99.90;;;;;;5021001;28;20084;-95
2022/01/20 12:22:51;;;;;;;8.90;1.73;;;6.50;99.90;;;;;;5036632;28;20045;-95
2022/01/20 12:25:22;;;;;;;11.15;1.90;;;6.40;99.90;;;;;;5036736;28;20053;-95
2022/01/20 12:27:48;;;;;;;13.27;2.35;;;6.50;99.90;;;;;;5036232;28;20486;-93
2022/01/20 12:30:17;;;;;;;11.90;1.98;;;7.10;99.90;;;;;;5020581;28;20053;-94
2022/01/20 12:32:42;;;;;;;10.77;1.48;;;7.40;99.90;;;;;;5019897;28;20064;-93
2022/01/20 12:35:08;;;;;;;13.07;2.15;;;7.80;99.90;;;;;;5036655;28;20041;-95
2022/01/20 12:37:38;;;;;;;10.80;1.58;;;7.80;99.90;;;;;;5020571;28;20053;-94
2022/01/20 12:40:06;;;;;;;11.65;1.90;;;7.50;99.90;;;;;;5037693;28;20049;-95
2022/01/20 12:42:34;;;;;;;14.93;1.83;;;7.20;99.90;;;;;;5020957;28;20102;-95
2022/01/20 12:47:49;;;;;;;17.92;2.28;;;7.40;99.90;;;;;;4957652;28;20061;-95
2022/01/20 12:50:15;;;;;;;10.93;2.15;;;7.30;99.90;;;;;;4958968;28;20047;-96
2022/01/20 12:52:50;;;;;;;11.80;2.10;;;7.20;99.90;;;;;;4957535;28;20058;-94
2022/01/20 12:55:22;;;;;;;12.90;1.90;;;7.20;99.90;;;;;;4958856;28;20121;-95
2022/01/20 12:57:58;;;;;;;14.85;2.28;;;7.20;99.90;;;;;;4957664;28;20066;-94
2022/01/20 13:00:23;;;;;;;11.77;2.00;;;7.30;99.90;;;;;;4960059;28;20471;-94
2022/01/20 13:02:52;;;;;;;16.85;2.60;;;7.40;99.90;;;;;;4957977;28;20051;-96
2022/01/20 13:05:19;;;;;;;15.68;2.50;;;7.20;99.90;;;;;;4959634;28;20151;-96
2022/01/20 13:08:04;;;;;;;14.27;2.63;;;7.00;99.90;;;;;;4941174;29;20059;-95
2022/01/20 13:10:33;;;;;;;16.75;2.50;;;7.20;99.90;;;;;;4941314;29;20536;-96
2022/01/20 13:13:02;;;;;;;21.25;3.08;;;7.40;99.90;;;;;;4942967;29;20055;-95
2022/01/20 13:15:32;;;;;;;12.95;2.17;;;7.30;99.90;;;;;;4945527;29;20175;-95
2022/01/20 13:18:08;;;;;;;14.75;2.95;;;6.90;99.90;;;;;;4942381;28;20137;-95
2022/01/20 13:20:40;;;;;;;20.80;3.20;;;6.90;99.90;;;;;;4962038;28;20061;-94
2022/01/20 13:25:47;;;;;;;15.05;2.40;;;6.60;99.90;;;;;;5035736;28;20473;-94
2022/01/20 13:28:17;;;;;;;16.23;2.45;;;6.70;99.90;;;;;;5042280;28;20051;-95
2022/01/20 13:30:48;;;;;;;7.55;1.65;;;7.10;99.90;;;;;;5040501;28;20127;-94
2022/01/20 13:33:19;;;;;;;18.30;2.38;;;7.30;99.90;;;;;;5056710;28;20163;-93
2022/01/20 13:35:47;;;;;;;13.23;2.67;;;7.30;99.90;;;;;;5023710;28;20127;-93
2022/01/20 13:38:13;;;;;;;18.73;2.53;;;7.80;99.90;;;;;;5040420;28;20482;-94
2022/01/20 13:40:47;;;;;;;12.00;2.33;;;8.40;99.90;;;;;;5024315;28;20041;-92
2022/01/20 13:46:00;;;;;;;8.52;1.60;;;9.30;99.90;;;;;;5041138;28;20041;-93
2022/01/20 13:48:33;;;;;;;14.25;2.17;;;9.70;99.90;;;;;;5022962;28;20040;-93
2022/01/20 13:51:02;;;;;;;15.05;1.85;;;9.30;99.90;;;;;;5023947;28;20056;-94
2022/01/20 13:53:30;;;;;;;17.05;2.95;;;8.50;99.90;;;;;;5025367;28;20481;-94
2022/01/20 13:56:09;;;;;;;12.32;1.77;;;8.30;99.90;;;;;;5025446;28;20087;-93
2022/01/20 13:58:44;;;;;;;15.55;2.17;;;8.00;99.90;;;;;;5025232;28;20374;-94
2022/01/20 14:01:10;;;;;;;13.60;2.45;;;7.50;99.90;;;;;;5022998;28;20102;-95
2022/01/20 14:03:39;;;;;;;14.05;2.10;;;7.50;99.90;;;;;;5023661;28;20063;-93
2022/01/20 14:06:06;;;;;;;15.75;1.88;;;7.40;99.90;;;;;;5023482;28;20055;-92
2022/01/20 14:08:36;;;;;;;15.38;1.90;;;7.30;99.90;;;;;;5022631;28;20048;-92
2022/01/20 14:11:03;;;;;;;10.13;1.85;;;7.20;99.90;;;;;;5022744;28;20489;-92
2022/01/20 14:13:29;;;;;;;13.07;1.90;;;7.00;99.90;;;;;;5022308;28;20045;-92
2022/01/20 14:15:55;;;;;;;15.73;1.77;;;6.70;99.90;;;;;;5037701;28;20413;-91
2022/01/20 14:18:23;;;;;;;11.93;2.22;;;6.50;99.90;;;;;;5018168;28;20049;-92
2022/01/20 14:20:53;;;;;;;12.60;1.40;;;6.10;99.90;;;;;;5039067;28;20093;-92
2022/01/20 14:23:18;;;;;;;11.65;1.95;;;5.90;99.90;;;;;;5021843;28;20501;-95